Dati Storici

Data ora Umidita' aria (%) Temperatura aria (°C) Rad globale (W/m²) Gonioanemometro (°) Tacoanemometro (m/s) Pioggia (mm)
18-06-2020 19:30 70.9 % 22.809 173.044 1.519 0 0
18-06-2020 19:20 71.2 % 22.481 127.661 1.802 0 0
18-06-2020 19:10 67.3 % 23.188 100.9 1.689 0 0
18-06-2020 19:00 65.1 % 23.693 140.645 1.615 0 0
18-06-2020 18:50 61.3 % 23.754 100.271 3.139 0 0
18-06-2020 18:40 61.5 % 23.907 191.405 3.275 0 0
18-06-2020 18:30 60.1 % 23.887 103.703 1.929 0 0
18-06-2020 18:20 62.7 % 24.393 69.35 3.867 0 0
18-06-2020 18:10 64.4 % 24.573 132.208 1.476 0 0
18-06-2020 18:00 51.5 % 26.391 192.276 -0.03 0 0
18-06-2020 17:50 46.9 % 26.704 1.065 0.971 0 0
18-06-2020 17:40 46 % 26.681 143.061 2.953 0 0
18-06-2020 17:30 45.9 % 26.958 191.272 2.085 0 0
18-06-2020 17:20 46.3 % 26.569 210.96 3.131 0 0
18-06-2020 17:10 45.3 % 26.673 139.803 2.601 0 0
18-06-2020 17:00 45.2 % 27.163 152.577 1.114 0 0
18-06-2020 16:50 44 % 26.862 144.22 3.83 0 0
18-06-2020 16:40 43.1 % 26.502 116.906 3.332 0 0
18-06-2020 16:30 44.3 % 27.245 208.72 3.194 0 0
18-06-2020 16:20 44.6 % 27.4 170.476 1.971 0 0

I dati sono presentati in modo automatico a scopo informativo. In seguito a verifica i dati possono subire modifiche o essere invalidati e non riportati negli archivi definitivi.